Juil
06

QUALIFICATIONS DU GRAND PRIX MX1 & MX2 DE SUÈDE : ANTONIO CAIROLI COMME D’HABITUDE & STEVE RAMON DE RETOUR EN PÔLE

YouthStreamSwedishMX08.jpg

RamonSuedeDay108.jpg

MX1 – Time Practice Classification

Pos Nr Rider Nat. Fed. Bike Bestlaptime in lap Diff. First Diff. Prev. Tot. Laps Speed

1 11 Ramon, Steve BEL FMB Suzuki 1:40.169 10 0:00.000 0:00.000 12 54.37

2 9 de Dycker, Ken BEL FMB Suzuki 1:40.209 11 0:00.040 0:00.040 12 54.35

3 8 Leok, Tanel EST EMF Kawasaki 1:40.254 13 0:00.085 0:00.045 15 54.33

4 7 Barragan, Jonathan ESP RFME KTM 1:40.604 9 0:00.435 0:00.350 13 54.14

5 90 Pourcel, Sebastien FRA FFM Kawasaki 1:40.634 11 0:00.465 0:00.030 13 54.12

6 25 Desalle, Clement BEL FMB Suzuki 1:40.865 8 0:00.696 0:00.231 12 54.00

7 19 Philippaerts, David ITA FMI Yamaha 1:40.983 5 0:00.814 0:00.118 11 53.93

8 12 Nagl, Maximilian GER DMSB KTM 1:41.150 8 0:00.981 0:00.167 14 53.84

9 6 Coppins, Joshua NZL MNZ Yamaha 1:41.256 15 0:01.087 0:00.106 15 53.79

10 211 Mackenzie, Billy GBR ACU Honda 1:41.318 4 0:01.149 0:00.062 9 53.75

11 14 de Reuver, Marc NED KNMV Honda 1:41.519 10 0:01.350 0:00.201 12 53.65

12 141 Boniface, Steve FRA AMA Honda 1:41.632 6 0:01.463 0:00.113 13 53.59

13 15 Bill, Julien SUI FMS Honda 1:42.177 10 0:02.008 0:00.545 14 53.30

14 27 Schiffer, Marcus GER DMSB KTM 1:42.341 10 0:02.172 0:00.164 12 53.22

15 32 Priem, Manuel BEL FMB Kawasaki 1:42.819 7 0:02.650 0:00.478 15 52.97

16 111 Leok, Aigar EST EMF Yamaha 1:42.951 10 0:02.782 0:00.132 12 52.90

17 23 Salvini, Alex ITA FMI Suzuki 1:43.244 4 0:03.075 0:00.293 12 52.75

18 108 Nemeth, Kornel HUN MAMS KTM 1:43.340 5 0:03.171 0:00.096 12 52.70

19 16 Noble, James GBR ACU KTM 1:43.646 10 0:03.477 0:00.306 14 52.55

20 36 Correira, Luis POR FNM Suzuki 1:43.802 12 0:03.633 0:00.156 12 52.47

21 28 Columb, Scott NZL MNZ Suzuki 1:43.867 9 0:03.698 0:00.065 12 52.44

22 10 Melotte, Cedric BEL FMB Aprilia 1:44.020 10 0:03.851 0:00.153 10 52.36

23 115 Campano, Carlos ESP RFME Yamaha 1:44.279 14 0:04.110 0:00.259 14 52.23

24 65 Vanni, Julien FRA FFM KTM 1:44.354 9 0:04.185 0:00.075 11 52.19

25 121 Chiodi, Alessio ITA FMI TM 1:44.374 12 0:04.205 0:00.020 14 52.18

26 56 Freibergs, Lauris LAT LAMSF Yamaha 1:44.652 13 0:04.483 0:00.278 14 52.04

27 60 Anderson, Bradley GBR ACU Suzuki 1:44.668 14 0:04.499 0:00.016 14 52.03

28 94 Bodin, Jonas SWE SVEMO Honda 1:44.767 4 0:04.598 0:00.099 10 51.98

29 24 Church, Tom GBR ACU Kawasaki 1:44.777 7 0:04.608 0:00.010 12 51.98

30 45 Leonce, Loic FRA FFM Yamaha 1:44.923 4 0:04.754 0:00.146 13 51.91

31 61 Lindstrom, Kim SWE SVEMO KTM 1:45.011 8 0:04.842 0:00.088 12 51.86

32 63 Nilsson, Mats SWE SVEMO Yamaha 1:45.454 14 0:05.285 0:00.443 14 51.65

33 39 Mackenzie, Bryan GBR ACU Kawasaki 1:45.662 10 0:05.493 0:00.208 14 51.54

34 93 Lindfors, Magnus SWE SVEMO Yamaha 1:45.760 7 0:05.591 0:00.098 13 51.50

35 95 Carlsson, Robert SWE SVEMO Yamaha 1:46.761 13 0:06.592 0:01.001 13 51.01

36 62 Nyberg, Max SWE SVEMO Honda 1:46.804 10 0:06.635 0:00.043 12 50.99

CairoliSuedeDay108.jpg

MX2 – Qualifying Race 1 Classification

Pos Nr Rider Nat. Fed. Bike Time laps Diff. First Diff. Prev. Bestlaptime in lap Speed

1 222 Cairoli, Antonio ITA FMI Yamaha 24:40.954 14 0:00.000 0:00.000 1:44.283 9 51.49

2 4 Rattray, Tyla RSA MSA KTM 24:45.268 14 0:04.314 0:04.314 1:44.170 14 51.34

3 39 Guarneri, Davide ITA FMI Yamaha 25:09.101 14 0:28.147 0:23.833 1:45.715 10 50.53

4 121 Boog, Xavier FRA FFM Suzuki 25:12.420 14 0:31.466 0:03.319 1:45.893 4 50.41

5 89 van Horebeek, Jeremy BEL FMB KTM 25:17.752 14 0:36.798 0:05.332 1:46.672 4 50.24

6 25 Musquin, Marvin FRA FFM Honda 25:25.697 14 0:44.743 0:07.945 1:46.974 13 49.98

7 13 Monni, Manuel ITA FMI Yamaha 25:26.669 14 0:45.715 0:00.972 1:47.316 9 49.94

8 81 Tarroux, Jeremy FRA FFM KTM 25:27.209 14 0:46.255 0:00.540 1:46.982 12 49.93

9 47 Leuret, Pascal FRA FFM Suzuki 25:35.297 14 0:54.343 0:08.088 1:47.899 13 49.66

10 34 Roelants, Joel BEL FMB KTM 25:35.836 14 0:54.882 0:00.539 1:47.682 10 49.65

11 23 Nunn, Carl GBR ACU Suzuki 25:36.924 14 0:55.970 0:01.088 1:47.583 12 49.61

12 20 Aranda, Gregory FRA FFM Kawasaki 25:39.258 14 0:58.304 0:02.334 1:48.298 13 49.54

13 22 Boissiere, Anthony FRA FFM KTM 25:43.387 14 1:02.433 0:04.129 1:48.211 10 49.40

14 44 Banks-Browne, Elliot GBR ACU Suzuki 25:48.188 14 1:07.234 0:04.801 1:47.547 11 49.25

15 12 Philippaerts, Deny ITA FMI Yamaha 25:54.990 14 1:14.036 0:06.802 1:48.657 7 49.03

16 33 Kulhavy, Josef SVK SMF Suzuki 26:21.639 14 1:40.685 0:26.649 1:50.382 5 48.21

17 501 Lupino, Alessandro ITA FMI Yamaha 26:26.485 14 1:45.531 0:04.846 1:49.116 8 48.06

18 96 Lunewski, Jan Olav NOR NMF Suzuki 26:32.413 14 1:51.459 0:05.928 1:51.190 9 47.88

19 75 Verbruggen, Dennis BEL FMB Yamaha 23:35.052 13 1 lap(s) 1 lap(s) 1:47.522 9 50.03

20 94 Fuglerud, Jan Rune NOR NMF KTM 14:16.152 6 8 lap(s) 7 lap(s) 1:50.409 3 38.17

21 91 Karro, Matiss LAT LAMSF Honda 9:29.569 5 9 lap(s) 1 lap(s) 1:50.733 4 47.81

22 116 Nijegard, Remi NOR NMF Honda 9:33.281 5 9 lap(s) 0:03.712 1:51.211 5 47.50

23 99 Sandberg, Rickard SWE SVEMO Kawasaki 8:17.542 4 10 lap(s) 1 lap(s) 1:52.311 2 43.78

24 21 Dahlgren, Jonathan SWE SVEMO Honda 9:53.827 4 10 lap(s) 1:36.285 1:52.684 2 36.68

MX2 – Qualifying Race 2 Classification

Pos Nr Rider Nat. Fed. Bike Time laps Diff. First Diff. Prev. Bestlaptime in lap Speed

1 2 Searle, Tommy GBR ACU KTM 24:40.514 14 0:00.000 0:00.000 1:44.397 4 51.50

2 24 Simpson, Shaun GBR MCUI KTM 24:47.080 14 0:06.566 0:06.566 1:44.712 5 51.27

3 183 Frossard, Steven FRA FFM Kawasaki 24:55.397 14 0:14.883 0:08.317 1:45.129 6 50.99

4 69 Avis, Wyatt RSA MSA Honda 25:00.335 14 0:19.821 0:04.938 1:45.580 6 50.82

5 8 Seistola, Matti FIN SML Honda 25:00.946 14 0:20.432 0:00.611 1:45.400 7 50.80

6 10 Goncalves, Rui POR FNM KTM 25:02.841 14 0:22.327 0:01.895 1:45.314 7 50.74

7 46 Dougan, Jason GBR ACU Suzuki 25:17.823 14 0:37.309 0:14.982 1:46.789 9 50.23

8 45 Nicholls, Jake GBR ACU Suzuki 25:20.134 14 0:39.620 0:02.311 1:46.694 7 50.16

9 37 Krestinov, Gert EST EMF KTM 25:25.866 14 0:45.352 0:05.732 1:46.856 10 49.97

10 56 Bobryshev, Evgeniy RUS MFR Yamaha 25:36.722 14 0:56.208 0:10.856 1:47.054 7 49.62

11 90 Söderström, Tom SWE SVEMO Yamaha 25:40.094 14 0:59.580 0:03.372 1:46.647 5 49.51

12 111 Tyletski, Evgeni BLR BFMS Suzuki 25:46.487 14 1:05.973 0:06.393 1:48.318 9 49.30

13 108 Rodrigues, Joaquim POR FNM KTM 25:51.266 14 1:10.752 0:04.779 1:49.101 9 49.15

14 26 Akerblom, Mats SWE SVEMO Suzuki 26:02.739 14 1:22.225 0:11.473 1:49.061 11 48.79

15 43 Millan, Francisco Jose ESP RFME KTM 24:42.058 13 1 lap(s) 1 lap(s) 1:48.288 8 47.77

16 18 Dierckx, Dennis BEL FMB Honda 24:57.372 13 1 lap(s) 0:15.314 1:47.914 10 47.28

17 76 Norlen, Marcus SWE ACU Suzuki 22:55.384 12 2 lap(s) 1 lap(s) 1:47.485 9 47.52

18 50 Barr, Martin GBR MCUI Yamaha 25:41.419 10 4 lap(s) 2 lap(s) 1:49.931 2 35.33

19 119 Pocock, Mel GBR ACU Yamaha 20:00.801 9 5 lap(s) 1 lap(s) 1:51.282 5 40.82

20 131 Aubin, Nicolas FRA FFM Yamaha 16:20.557 8 6 lap(s) 1 lap(s) 1:45.340 6 44.43

21 95 Karlsson, Frederik SWE SVEMO Yamaha 11:11.360 6 8 lap(s) 2 lap(s) 1:48.190 6 48.67

22 291 Thuresson, Filip SWE SVEMO Suzuki 9:42.469 5 9 lap(s) 1 lap(s) 1:47.413 4 46.75

23 97 Eriksson, Alex SWE SVEMO Suzuki 5:27.646 2 12 lap(s) 3 lap(s) 2:51.004 2 33.24

MX2 – Last Chance Qualifying Practice Classification

Pos Nr Rider Nat. Fed. Bike Bestlaptime in lap Diff. First Diff. Prev. Tot. Laps Speed

1 131 Aubin, Nicolas FRA FFM Yamaha 1:43.879 7 0:00.000 0:00.000 7 52.43

2 291 Thuresson, Filip SWE SVEMO Suzuki 1:44.288 12 0:00.409 0:00.409 12 52.22

3 501 Lupino, Alessandro ITA FMI Yamaha 1:44.756 12 0:00.877 0:00.468 14 51.99

4 75 Verbruggen, Dennis BEL FMB Yamaha 1:44.930 14 0:01.051 0:00.174 14 51.90

5 44 Banks-Browne, Elliot GBR ACU Suzuki 1:44.962 13 0:01.083 0:00.032 15 51.89

6 22 Boissiere, Anthony FRA FFM KTM 1:45.033 7 0:01.154 0:00.071 10 51.85

7 91 Karro, Matiss LAT LAMSF Honda 1:45.201 11 0:01.322 0:00.168 15 51.77

8 18 Dierckx, Dennis BEL FMB Honda 1:45.289 7 0:01.410 0:00.088 11 51.73

9 33 Kulhavy, Josef SVK SMF Suzuki 1:45.354 12 0:01.475 0:00.065 13 51.69

10 50 Barr, Martin GBR MCUI Yamaha 1:45.990 8 0:02.111 0:00.636 14 51.38..

YouthStreamNewBannerDownMX08.jpg

A voir aussi :

Le commentaires sont fermés.